createdAt,value
2017-12-14T00:00:22.082Z,98.3
2017-12-14T00:01:23.906Z,98.3
2017-12-14T00:02:25.624Z,98.7
2017-12-14T00:03:27.313Z,98.5
2017-12-14T00:04:28.991Z,98.3
2017-12-14T00:05:30.744Z,98.2
2017-12-14T00:06:32.566Z,98.0
2017-12-14T00:07:34.218Z,98.3
2017-12-14T00:08:35.912Z,97.7
2017-12-14T00:09:37.802Z,97.6
2017-12-14T00:10:39.594Z,97.4
2017-12-14T00:11:41.315Z,97.7
2017-12-14T00:12:43.048Z,97.3
2017-12-14T00:13:44.783Z,97.2
2017-12-14T00:14:46.514Z,97.2
2017-12-14T00:15:48.278Z,97.1
2017-12-14T00:16:49.929Z,96.9
2017-12-14T00:17:51.649Z,96.2
2017-12-14T00:18:53.534Z,97.0
2017-12-14T00:19:55.164Z,95.9
2017-12-14T00:20:56.864Z,96.5
2017-12-14T00:21:58.701Z,97.0
2017-12-14T00:23:00.435Z,97.2
2017-12-14T00:24:02.147Z,97.2
2017-12-14T00:25:03.894Z,96.6
2017-12-14T00:26:05.633Z,96.1
2017-12-14T00:27:07.398Z,96.6
2017-12-14T00:28:09.095Z,96.6
2017-12-14T00:29:10.876Z,97.4
2017-12-14T00:30:12.703Z,97.1
2017-12-14T00:31:14.476Z,97.2
2017-12-14T00:32:16.219Z,96.5
2017-12-14T00:33:17.984Z,96.2
2017-12-14T00:34:19.722Z,96.1
2017-12-14T00:35:21.435Z,96.1
2017-12-14T00:36:23.156Z,96.5
2017-12-14T00:37:24.846Z,96.3
2017-12-14T00:38:26.452Z,96.6
2017-12-14T00:39:28.073Z,95.9
2017-12-14T00:40:29.634Z,96.6
2017-12-14T00:41:31.195Z,96.2
2017-12-14T00:42:32.935Z,95.4
2017-12-14T00:43:34.619Z,96.2
2017-12-14T00:44:36.353Z,96.4
2017-12-14T00:45:38.135Z,96.1
2017-12-14T00:46:39.841Z,96.1
2017-12-14T00:47:41.524Z,95.6
2017-12-14T00:48:43.259Z,95.8
2017-12-14T00:49:44.911Z,95.9
2017-12-14T00:50:46.670Z,96.4
2017-12-14T00:51:48.244Z,96.6
2017-12-14T00:52:49.746Z,96.9
2017-12-14T00:53:51.401Z,96.5
2017-12-14T00:54:52.946Z,94.9
2017-12-14T00:55:54.424Z,95.2
2017-12-14T00:56:55.926Z,94.8
2017-12-14T00:57:57.618Z,94.8
2017-12-14T00:58:59.297Z,95.2
2017-12-14T01:00:00.835Z,95.0
2017-12-14T01:01:02.493Z,95.0
2017-12-14T01:02:03.937Z,95.5
2017-12-14T01:03:05.436Z,95.4
2017-12-14T01:04:06.999Z,94.9
2017-12-14T01:05:08.562Z,95.2
2017-12-14T01:06:10.063Z,95.2
2017-12-14T01:07:11.538Z,95.2
2017-12-14T01:08:13.304Z,95.4
2017-12-14T01:09:14.789Z,95.4
2017-12-14T01:10:16.361Z,95.3
2017-12-14T01:11:17.983Z,95.0
2017-12-14T01:12:19.455Z,95.4
2017-12-14T01:13:21.042Z,94.9
2017-12-14T01:14:22.637Z,95.3
2017-12-14T01:15:24.283Z,95.4
2017-12-14T01:16:25.767Z,95.2
2017-12-14T01:17:27.482Z,94.5
2017-12-14T01:18:29.075Z,94.3
2017-12-14T01:19:30.769Z,94.7
2017-12-14T01:20:32.310Z,94.9
2017-12-14T01:21:34.094Z,94.5
2017-12-14T01:22:35.727Z,94.0
2017-12-14T01:23:37.424Z,94.3
2017-12-14T01:24:39.122Z,94.6
2017-12-14T01:25:40.872Z,95.1
2017-12-14T01:26:42.619Z,94.7
2017-12-14T01:27:44.233Z,94.8
2017-12-14T01:28:45.926Z,94.7
2017-12-14T01:29:47.666Z,94.6
2017-12-14T01:30:49.352Z,95.0
2017-12-14T01:31:51.137Z,95.0
2017-12-14T01:32:52.786Z,94.7
2017-12-14T01:33:54.424Z,95.2
2017-12-14T01:34:55.979Z,94.7
2017-12-14T01:35:57.692Z,94.9
2017-12-14T01:36:59.411Z,94.9
2017-12-14T01:38:00.984Z,94.7
2017-12-14T01:39:02.527Z,94.1
2017-12-14T01:40:04.301Z,94.8
2017-12-14T01:41:05.947Z,94.7
2017-12-14T01:42:07.427Z,93.6
2017-12-14T01:43:09.120Z,94.1
2017-12-14T01:44:10.625Z,93.5
2017-12-14T01:45:12.284Z,93.9
2017-12-14T01:46:13.995Z,94.4
2017-12-14T01:47:15.795Z,94.5
2017-12-14T01:48:17.608Z,94.0
2017-12-14T01:49:19.494Z,94.0
2017-12-14T01:50:21.139Z,93.9
2017-12-14T01:51:22.807Z,93.0
2017-12-14T01:52:24.640Z,93.2
2017-12-14T01:53:26.348Z,93.4
2017-12-14T01:54:28.068Z,92.8
2017-12-14T01:55:29.633Z,92.8
2017-12-14T01:56:31.428Z,92.8
2017-12-14T01:57:32.994Z,92.7
2017-12-14T01:58:34.709Z,93.5
2017-12-14T01:59:36.475Z,92.6
2017-12-14T02:00:38.202Z,92.7
2017-12-14T02:01:39.903Z,92.1
2017-12-14T02:02:41.526Z,92.2
2017-12-14T02:03:43.309Z,92.4
2017-12-14T02:04:45.041Z,92.4
2017-12-14T02:05:46.737Z,92.7
2017-12-14T02:06:48.499Z,91.9
2017-12-14T02:07:50.267Z,92.3
2017-12-14T02:08:52.087Z,92.1
2017-12-14T02:09:53.928Z,91.4
2017-12-14T02:10:55.602Z,91.7
2017-12-14T02:11:57.406Z,91.8
2017-12-14T02:12:59.068Z,91.8
2017-12-14T02:14:00.719Z,91.7
2017-12-14T02:15:02.332Z,92.2
2017-12-14T02:16:03.811Z,92.6
2017-12-14T02:17:05.520Z,91.9
2017-12-14T02:18:07.291Z,92.5
2017-12-14T02:19:08.994Z,92.6
2017-12-14T02:20:10.715Z,92.5
2017-12-14T02:21:12.334Z,92.4
2017-12-14T02:22:15.987Z,91.9
2017-12-14T02:23:17.719Z,91.9
2017-12-14T02:24:19.306Z,91.8
2017-12-14T02:25:20.844Z,92.4
2017-12-14T02:26:22.697Z,91.8
2017-12-14T02:27:24.392Z,91.4
2017-12-14T02:28:25.980Z,91.8
2017-12-14T02:29:27.690Z,91.5
2017-12-14T02:30:29.277Z,91.9
2017-12-14T02:31:30.964Z,91.7
2017-12-14T02:32:32.731Z,92.0
2017-12-14T02:33:34.359Z,92.0
2017-12-14T02:34:36.090Z,91.9
2017-12-14T02:35:37.756Z,91.9
2017-12-14T02:36:39.390Z,91.7
2017-12-14T02:37:41.181Z,91.9
2017-12-14T02:38:43.040Z,92.2
2017-12-14T02:39:44.828Z,91.9
2017-12-14T02:40:46.490Z,91.7
2017-12-14T02:41:48.255Z,92.6
2017-12-14T02:42:49.945Z,92.8
2017-12-14T02:43:51.629Z,92.8
2017-12-14T02:44:53.369Z,93.0
2017-12-14T02:45:54.896Z,92.6
2017-12-14T02:46:56.623Z,92.3
2017-12-14T02:47:58.360Z,92.5
2017-12-14T02:48:59.819Z,93.2
2017-12-14T02:50:01.498Z,93.0
2017-12-14T02:51:03.386Z,92.3
2017-12-14T02:52:05.001Z,92.5
2017-12-14T02:53:06.784Z,92.9
2017-12-14T02:54:08.846Z,92.8
2017-12-14T02:55:10.518Z,93.4
2017-12-14T02:56:12.042Z,92.9
2017-12-14T02:57:13.574Z,92.8
2017-12-14T02:58:15.179Z,93.1
2017-12-14T02:59:16.801Z,93.4
2017-12-14T03:00:18.297Z,93.3
2017-12-14T03:01:20.060Z,93.6
2017-12-14T03:02:21.759Z,93.1
2017-12-14T03:03:23.524Z,92.9
2017-12-14T03:04:25.234Z,93.2
2017-12-14T03:05:27.075Z,93.0
2017-12-14T03:06:28.552Z,92.9
2017-12-14T03:07:30.046Z,93.0
2017-12-14T03:08:31.740Z,93.6
2017-12-14T03:09:33.388Z,93.6
2017-12-14T03:10:35.090Z,94.1
2017-12-14T03:11:36.748Z,93.8
2017-12-14T03:12:38.200Z,93.8
2017-12-14T03:13:39.649Z,93.9
2017-12-14T03:14:41.348Z,93.7
2017-12-14T03:15:43.043Z,93.9
2017-12-14T03:16:44.506Z,93.6
2017-12-14T03:17:46.240Z,93.6
2017-12-14T03:18:47.920Z,93.6
2017-12-14T03:19:49.517Z,93.9
2017-12-14T03:20:51.135Z,93.8
2017-12-14T03:21:52.638Z,93.3
2017-12-14T03:22:54.261Z,93.0
2017-12-14T03:23:55.877Z,93.4
2017-12-14T03:24:57.586Z,93.4
2017-12-14T03:25:59.326Z,93.1
2017-12-14T03:27:00.992Z,93.8
2017-12-14T03:28:02.465Z,93.5
2017-12-14T03:29:04.117Z,93.8
2017-12-14T03:30:05.595Z,94.0
2017-12-14T03:31:07.207Z,94.2
2017-12-14T03:32:08.919Z,94.0
2017-12-14T03:33:10.544Z,94.6
2017-12-14T03:34:12.230Z,94.6
2017-12-14T03:35:13.960Z,94.8
2017-12-14T03:36:15.736Z,93.8
2017-12-14T03:37:17.539Z,93.9
2017-12-14T03:38:19.214Z,94.5
2017-12-14T03:39:20.848Z,95.0
2017-12-14T03:40:22.464Z,95.2
2017-12-14T03:41:23.928Z,95.5
2017-12-14T03:42:25.519Z,95.2
2017-12-14T03:43:27.055Z,94.6
2017-12-14T03:44:28.513Z,95.0
2017-12-14T03:45:30.261Z,95.3
2017-12-14T03:46:31.917Z,96.0
2017-12-14T03:47:33.636Z,96.0
2017-12-14T03:48:35.386Z,96.6
2017-12-14T03:49:36.981Z,96.3
2017-12-14T03:50:38.512Z,96.5
2017-12-14T03:51:39.980Z,95.9
2017-12-14T03:52:41.724Z,96.5
2017-12-14T03:53:43.380Z,97.8
2017-12-14T03:54:44.881Z,97.8
2017-12-14T03:55:46.389Z,98.5
2017-12-14T03:56:47.886Z,98.4
2017-12-14T03:57:49.381Z,98.3
2017-12-14T03:58:51.095Z,98.6
2017-12-14T03:59:52.797Z,98.0
2017-12-14T04:00:54.358Z,99.1
2017-12-14T04:01:56.008Z,98.9
2017-12-14T04:02:57.798Z,98.9
2017-12-14T04:03:59.351Z,99.6
2017-12-14T04:05:00.906Z,99.7
2017-12-14T04:06:02.626Z,99.4
2017-12-14T04:07:04.378Z,99.7
2017-12-14T04:08:06.014Z,100.0
2017-12-14T04:09:07.510Z,99.6
2017-12-14T04:10:09.232Z,99.7
2017-12-14T04:11:10.962Z,99.8
2017-12-14T04:12:12.769Z,99.5
2017-12-14T04:13:14.525Z,99.5
2017-12-14T04:14:16.208Z,99.6
2017-12-14T04:15:17.889Z,100.0
2017-12-14T04:16:19.498Z,100.0
2017-12-14T04:17:21.099Z,100.0
2017-12-14T04:18:22.604Z,100.0
2017-12-14T04:19:24.322Z,100.0
2017-12-14T04:20:25.931Z,100.0
2017-12-14T04:21:27.485Z,100.0
2017-12-14T04:22:29.168Z,100.0
2017-12-14T04:23:30.909Z,100.0
2017-12-14T04:24:32.645Z,100.0
2017-12-14T04:25:34.409Z,100.0
2017-12-14T04:26:36.140Z,100.0
2017-12-14T04:27:37.947Z,100.0
2017-12-14T04:28:39.683Z,100.0
2017-12-14T04:29:41.543Z,100.0
2017-12-14T04:30:43.294Z,100.0
2017-12-14T04:31:45.150Z,100.0
2017-12-14T04:32:47.065Z,100.0
2017-12-14T04:33:48.782Z,100.0
2017-12-14T04:34:50.512Z,100.0
2017-12-14T04:35:52.285Z,100.0
2017-12-14T04:36:54.140Z,100.0
2017-12-14T04:37:56.056Z,100.0
2017-12-14T04:38:57.715Z,100.0
2017-12-14T04:39:59.548Z,100.0
2017-12-14T04:41:01.198Z,100.0
2017-12-14T04:42:02.859Z,100.0
2017-12-14T04:43:04.609Z,100.0
2017-12-14T04:44:06.398Z,100.0
2017-12-14T04:45:08.017Z,100.0
2017-12-14T04:46:09.740Z,100.0
2017-12-14T04:47:11.185Z,100.0
2017-12-14T04:48:12.900Z,100.0
2017-12-14T04:49:14.538Z,100.0
2017-12-14T04:50:16.374Z,100.0
2017-12-14T04:51:18.135Z,100.0
2017-12-14T04:52:19.883Z,100.0
2017-12-14T04:53:21.676Z,100.0
2017-12-14T04:54:23.392Z,100.0
2017-12-14T04:55:25.086Z,100.0
2017-12-14T04:56:26.849Z,100.0
2017-12-14T04:57:28.626Z,100.0
2017-12-14T04:58:30.373Z,100.0
2017-12-14T04:59:32.060Z,100.0
2017-12-14T05:00:33.795Z,100.0
2017-12-14T05:01:35.450Z,100.0
2017-12-14T05:02:37.214Z,100.0
2017-12-14T05:03:38.921Z,100.0
2017-12-14T05:04:40.592Z,100.0
2017-12-14T05:05:42.338Z,100.0
2017-12-14T05:06:44.227Z,100.0
2017-12-14T05:07:46.026Z,100.0
2017-12-14T05:08:47.783Z,100.0
2017-12-14T05:09:49.477Z,100.0
2017-12-14T05:10:50.938Z,100.0
2017-12-14T05:11:52.467Z,100.0
2017-12-14T05:12:53.967Z,100.0
2017-12-14T05:13:55.441Z,100.0
2017-12-14T05:14:57.146Z,100.0
2017-12-14T05:15:58.870Z,100.0
2017-12-14T05:17:00.585Z,100.0
2017-12-14T05:18:02.382Z,100.0
2017-12-14T05:19:04.120Z,100.0
2017-12-14T05:20:05.806Z,100.0
2017-12-14T05:21:07.697Z,100.0
2017-12-14T05:22:09.478Z,100.0
2017-12-14T05:23:11.265Z,100.0
2017-12-14T05:24:13.057Z,100.0
2017-12-14T05:25:14.824Z,100.0
2017-12-14T05:26:16.664Z,100.0
2017-12-14T05:27:18.280Z,100.0
2017-12-14T05:28:19.976Z,100.0
2017-12-14T05:29:21.780Z,100.0
2017-12-14T05:30:23.452Z,100.0
2017-12-14T05:31:25.309Z,100.0
2017-12-14T05:32:26.927Z,100.0
2017-12-14T05:33:28.773Z,100.0
2017-12-14T05:34:30.550Z,100.0
2017-12-14T05:35:32.329Z,100.0
2017-12-14T05:36:34.090Z,100.0
2017-12-14T05:37:35.952Z,100.0
2017-12-14T05:38:37.640Z,100.0
2017-12-14T05:39:39.189Z,100.0
2017-12-14T05:40:40.916Z,100.0
2017-12-14T05:41:42.646Z,100.0
2017-12-14T05:42:44.363Z,100.0
2017-12-14T05:43:45.810Z,100.0
2017-12-14T05:44:47.514Z,100.0
2017-12-14T05:45:49.060Z,100.0
2017-12-14T05:46:50.531Z,100.0
2017-12-14T05:47:52.300Z,100.0
2017-12-14T05:48:53.994Z,100.0
2017-12-14T05:49:55.751Z,100.0
2017-12-14T05:50:57.532Z,100.0
2017-12-14T05:51:59.133Z,100.0
2017-12-14T05:53:00.854Z,100.0
2017-12-14T05:54:02.576Z,100.0
2017-12-14T05:55:04.278Z,100.0
2017-12-14T05:56:05.904Z,100.0
2017-12-14T05:57:07.415Z,100.0
2017-12-14T05:58:09.060Z,100.0
2017-12-14T05:59:10.494Z,100.0
2017-12-14T06:00:12.275Z,100.0
2017-12-14T06:01:13.974Z,100.0
2017-12-14T06:02:15.675Z,100.0
2017-12-14T06:03:17.303Z,100.0
2017-12-14T06:04:19.070Z,100.0
2017-12-14T06:05:20.824Z,100.0
2017-12-14T06:06:22.564Z,100.0
2017-12-14T06:07:24.014Z,100.0
2017-12-14T06:08:25.782Z,100.0
2017-12-14T06:09:27.545Z,100.0
2017-12-14T06:10:29.304Z,100.0
2017-12-14T06:11:31.055Z,100.0
2017-12-14T06:12:32.970Z,100.0
2017-12-14T06:13:34.744Z,100.0
2017-12-14T06:14:36.491Z,100.0
2017-12-14T06:15:38.219Z,100.0
2017-12-14T06:16:39.884Z,100.0
2017-12-14T06:17:41.697Z,100.0
2017-12-14T06:18:43.495Z,100.0
2017-12-14T06:19:45.345Z,100.0
2017-12-14T06:20:47.106Z,100.0
2017-12-14T06:21:48.958Z,100.0
2017-12-14T06:22:50.768Z,100.0
2017-12-14T06:23:52.795Z,100.0
2017-12-14T06:24:54.578Z,100.0
2017-12-14T06:25:56.283Z,100.0
2017-12-14T06:26:58.170Z,100.0
2017-12-14T06:27:59.895Z,100.0
2017-12-14T06:29:01.759Z,100.0
2017-12-14T06:30:03.335Z,100.0
2017-12-14T06:31:05.170Z,100.0
2017-12-14T06:32:06.908Z,100.0
2017-12-14T06:33:08.746Z,100.0
2017-12-14T06:34:10.351Z,100.0
2017-12-14T06:35:11.920Z,100.0
2017-12-14T06:36:13.669Z,100.0
2017-12-14T06:37:15.425Z,100.0
2017-12-14T06:38:17.195Z,100.0
2017-12-14T06:39:18.751Z,100.0
2017-12-14T06:40:20.508Z,100.0
2017-12-14T06:41:22.392Z,100.0
2017-12-14T06:42:24.141Z,100.0
2017-12-14T06:43:25.897Z,100.0
2017-12-14T06:44:27.614Z,100.0
2017-12-14T06:45:29.320Z,100.0
2017-12-14T06:46:30.928Z,100.0
2017-12-14T06:47:32.745Z,100.0
2017-12-14T06:48:34.492Z,100.0
2017-12-14T06:49:36.213Z,100.0
2017-12-14T06:50:37.904Z,100.0
2017-12-14T06:51:39.576Z,100.0
2017-12-14T06:52:41.101Z,100.0
2017-12-14T06:53:42.901Z,100.0
2017-12-14T06:54:44.590Z,100.0
2017-12-14T06:55:46.323Z,100.0
2017-12-14T06:56:48.023Z,100.0
2017-12-14T06:57:49.805Z,100.0
2017-12-14T06:58:51.550Z,100.0
2017-12-14T06:59:53.264Z,100.0
2017-12-14T07:00:55.020Z,100.0
2017-12-14T07:01:56.643Z,100.0
2017-12-14T07:02:58.264Z,100.0
2017-12-14T07:03:59.704Z,100.0
2017-12-14T07:05:01.173Z,100.0
2017-12-14T07:06:02.615Z,100.0
2017-12-14T07:07:04.090Z,100.0
2017-12-14T07:08:05.818Z,100.0
2017-12-14T07:09:07.602Z,100.0
2017-12-14T07:10:09.215Z,100.0
2017-12-14T07:11:11.019Z,100.0
2017-12-14T07:12:12.724Z,100.0
2017-12-14T07:13:14.341Z,100.0
2017-12-14T07:14:15.994Z,100.0
2017-12-14T07:15:17.744Z,100.0
2017-12-14T07:16:21.426Z,100.0
2017-12-14T07:17:23.123Z,100.0
2017-12-14T07:18:24.769Z,100.0
2017-12-14T07:19:26.428Z,100.0
2017-12-14T07:20:28.162Z,100.0
2017-12-14T07:21:29.858Z,100.0
2017-12-14T07:22:31.558Z,100.0
2017-12-14T07:23:33.227Z,100.0
2017-12-14T07:24:34.863Z,100.0
2017-12-14T07:25:36.526Z,100.0
2017-12-14T07:26:38.173Z,100.0
2017-12-14T07:27:39.893Z,100.0
2017-12-14T07:28:41.539Z,100.0
2017-12-14T07:29:43.191Z,100.0
2017-12-14T07:30:44.773Z,100.0
2017-12-14T07:31:46.588Z,100.0
2017-12-14T07:32:48.229Z,100.0
2017-12-14T07:33:49.933Z,100.0
2017-12-14T07:34:51.713Z,100.0
2017-12-14T07:35:53.337Z,100.0
2017-12-14T07:36:54.875Z,100.0
2017-12-14T07:37:56.602Z,100.0
2017-12-14T07:38:58.200Z,100.0
2017-12-14T07:39:59.918Z,100.0
2017-12-14T07:41:01.657Z,100.0
2017-12-14T07:42:03.368Z,100.0
2017-12-14T07:43:04.854Z,100.0
2017-12-14T07:44:06.419Z,100.0
2017-12-14T07:45:08.214Z,100.0
2017-12-14T07:46:09.874Z,100.0
2017-12-14T07:47:11.601Z,100.0
2017-12-14T07:48:13.419Z,100.0
2017-12-14T07:49:15.141Z,100.0
2017-12-14T07:50:16.842Z,100.0
2017-12-14T07:51:18.596Z,100.0
2017-12-14T07:52:20.350Z,100.0
2017-12-14T07:53:22.047Z,100.0
2017-12-14T07:54:23.834Z,100.0
2017-12-14T07:55:25.528Z,100.0
2017-12-14T07:56:27.360Z,100.0
2017-12-14T07:57:29.102Z,100.0
2017-12-14T07:58:30.778Z,100.0
2017-12-14T07:59:32.601Z,100.0
2017-12-14T08:00:34.257Z,100.0
2017-12-14T08:01:35.960Z,100.0
2017-12-14T08:02:37.449Z,100.0
2017-12-14T08:03:39.106Z,100.0
2017-12-14T08:04:40.799Z,100.0
2017-12-14T08:05:42.447Z,100.0
2017-12-14T08:06:44.072Z,100.0
2017-12-14T08:07:45.791Z,100.0
2017-12-14T08:08:47.574Z,100.0
2017-12-14T08:09:49.227Z,100.0
2017-12-14T08:10:51.029Z,100.0
2017-12-14T08:11:52.909Z,99.7
2017-12-14T08:12:54.579Z,99.2
2017-12-14T08:13:56.044Z,99.6
2017-12-14T08:14:57.546Z,99.8
2017-12-14T08:15:58.972Z,99.6
2017-12-14T08:17:00.442Z,99.5
2017-12-14T08:18:02.393Z,99.0
2017-12-14T08:19:03.851Z,99.4
2017-12-14T08:20:05.450Z,98.8
2017-12-14T08:21:06.897Z,99.2
2017-12-14T08:22:08.328Z,99.0
2017-12-14T08:23:10.042Z,99.1
2017-12-14T08:24:11.710Z,99.1
2017-12-14T08:25:13.487Z,99.4
2017-12-14T08:26:15.067Z,98.8
2017-12-14T08:27:16.675Z,98.8
2017-12-14T08:28:18.154Z,98.2
2017-12-14T08:29:19.655Z,98.2
2017-12-14T08:30:21.027Z,97.9
2017-12-14T08:31:22.818Z,97.3
2017-12-14T08:32:24.506Z,97.4
2017-12-14T08:33:26.098Z,97.6
2017-12-14T08:34:27.808Z,97.5
2017-12-14T08:35:29.428Z,97.6
2017-12-14T08:36:31.033Z,97.6
2017-12-14T08:37:32.796Z,96.9
2017-12-14T08:38:34.521Z,96.6
2017-12-14T08:39:36.201Z,96.7
2017-12-14T08:40:37.860Z,96.8
2017-12-14T08:41:39.487Z,96.7
2017-12-14T08:42:41.116Z,97.1
2017-12-14T08:43:42.898Z,95.9
2017-12-14T08:44:44.346Z,96.0
2017-12-14T08:45:45.822Z,95.7
2017-12-14T08:46:47.298Z,96.1
2017-12-14T08:47:48.743Z,95.7
2017-12-14T08:48:50.244Z,95.1
2017-12-14T08:49:51.876Z,95.1
2017-12-14T08:50:53.311Z,96.0
2017-12-14T08:51:54.906Z,95.0
2017-12-14T08:52:56.653Z,95.1
2017-12-14T08:53:58.342Z,95.2
2017-12-14T08:54:59.888Z,94.4
2017-12-14T08:56:01.355Z,94.7
2017-12-14T08:57:02.834Z,94.6
2017-12-14T08:58:04.436Z,94.4
2017-12-14T08:59:05.883Z,94.6
2017-12-14T09:00:07.447Z,94.7
2017-12-14T09:01:08.949Z,94.6
2017-12-14T09:02:10.545Z,94.6
2017-12-14T09:03:12.198Z,94.4
2017-12-14T09:04:13.798Z,94.6
2017-12-14T09:05:15.214Z,93.9
2017-12-14T09:06:16.724Z,93.9
2017-12-14T09:07:18.160Z,94.1
2017-12-14T09:08:19.781Z,93.8
2017-12-14T09:09:21.327Z,94.7
2017-12-14T09:10:22.887Z,93.9
2017-12-14T09:11:24.351Z,93.3
2017-12-14T09:12:25.933Z,93.3
2017-12-14T09:13:27.436Z,92.9
2017-12-14T09:14:28.986Z,92.8
2017-12-14T09:15:30.534Z,92.8
2017-12-14T09:16:32.294Z,92.4
2017-12-14T09:17:33.717Z,92.2
2017-12-14T09:18:35.306Z,92.2
2017-12-14T09:19:36.718Z,92.8
2017-12-14T09:20:38.345Z,92.7
2017-12-14T09:21:39.788Z,92.6
2017-12-14T09:22:41.296Z,92.5
2017-12-14T09:23:42.792Z,92.4
2017-12-14T09:24:44.204Z,92.9
2017-12-14T09:25:45.691Z,92.6
2017-12-14T09:26:47.120Z,92.8
2017-12-14T09:27:48.638Z,92.8
2017-12-14T09:28:50.071Z,93.3
2017-12-14T09:29:51.679Z,92.5
2017-12-14T09:30:53.150Z,92.4
2017-12-14T09:31:54.674Z,92.2
2017-12-14T09:32:56.213Z,92.3
2017-12-14T09:33:57.908Z,92.5
2017-12-14T09:34:59.658Z,92.4
2017-12-14T09:36:01.142Z,92.8
2017-12-14T09:37:02.579Z,92.6
2017-12-14T09:38:04.239Z,92.8
2017-12-14T09:39:05.805Z,93.0
2017-12-14T09:40:07.500Z,93.0
2017-12-14T09:41:09.212Z,92.5
2017-12-14T09:42:10.800Z,92.4
2017-12-14T09:43:12.171Z,92.4
2017-12-14T09:44:13.579Z,93.3
2017-12-14T09:45:15.054Z,92.3
2017-12-14T09:46:16.480Z,92.2
2017-12-14T09:47:17.973Z,91.9
2017-12-14T09:48:19.409Z,92.1
2017-12-14T09:49:20.881Z,91.4
2017-12-14T09:50:22.337Z,91.5
2017-12-14T09:51:23.771Z,91.6
2017-12-14T09:52:25.379Z,91.3
2017-12-14T09:53:26.806Z,90.7
2017-12-14T09:54:28.460Z,91.5
2017-12-14T09:55:29.892Z,91.5
2017-12-14T09:56:31.315Z,91.9
2017-12-14T09:57:32.899Z,92.2
2017-12-14T09:58:34.460Z,91.2
2017-12-14T09:59:35.994Z,90.8
2017-12-14T10:00:37.407Z,91.4
2017-12-14T10:01:38.829Z,91.3
2017-12-14T10:02:40.238Z,90.4
2017-12-14T10:03:41.684Z,90.5
2017-12-14T10:04:43.243Z,90.6
2017-12-14T10:05:44.767Z,90.5
2017-12-14T10:06:46.284Z,90.3
2017-12-14T10:07:47.839Z,90.6
2017-12-14T10:08:49.256Z,90.7
2017-12-14T10:09:50.705Z,90.7
2017-12-14T10:10:52.200Z,90.7
2017-12-14T10:11:53.640Z,90.8
2017-12-14T10:12:55.251Z,90.6
2017-12-14T10:13:56.713Z,90.5
2017-12-14T10:14:58.311Z,89.8
2017-12-14T10:15:59.799Z,91.0
2017-12-14T10:17:01.226Z,90.8
2017-12-14T10:18:02.739Z,91.0
2017-12-14T10:19:04.320Z,91.3
2017-12-14T10:20:05.806Z,91.9
2017-12-14T10:21:07.243Z,91.7
2017-12-14T10:22:08.776Z,92.3
2017-12-14T10:23:10.438Z,92.5
2017-12-14T10:24:11.932Z,93.8
2017-12-14T10:25:13.389Z,94.1
2017-12-14T10:26:14.833Z,93.8
2017-12-14T10:27:16.275Z,94.0
2017-12-14T10:28:17.771Z,93.5
2017-12-14T10:29:19.288Z,94.1
2017-12-14T10:30:20.926Z,93.8
2017-12-14T10:31:22.389Z,93.8
2017-12-14T10:32:23.828Z,93.9
2017-12-14T10:33:25.368Z,93.8
2017-12-14T10:34:26.845Z,93.8
2017-12-14T10:35:28.314Z,93.9
2017-12-14T10:36:29.772Z,94.7
2017-12-14T10:37:31.173Z,93.4
2017-12-14T10:38:32.801Z,94.1
2017-12-14T10:39:34.309Z,93.8
2017-12-14T10:40:35.793Z,93.0
2017-12-14T10:41:37.251Z,93.9
2017-12-14T10:42:38.770Z,93.8
2017-12-14T10:43:40.407Z,93.6
2017-12-14T10:44:42.025Z,92.6
2017-12-14T10:45:43.585Z,93.0
2017-12-14T10:46:45.009Z,90.3
2017-12-14T10:47:46.642Z,86.9
2017-12-14T10:48:48.191Z,87.1
2017-12-14T10:49:49.652Z,84.0
2017-12-14T10:50:51.208Z,85.4
2017-12-14T10:51:52.735Z,87.0
2017-12-14T10:52:54.360Z,87.1
2017-12-14T10:53:55.823Z,85.3
2017-12-14T10:54:57.292Z,82.5
2017-12-14T10:55:58.799Z,80.5
2017-12-14T10:57:00.343Z,79.3
2017-12-14T10:58:01.783Z,80.6
2017-12-14T10:59:03.382Z,83.2
2017-12-14T11:00:04.934Z,83.8
2017-12-14T11:01:06.402Z,82.1
2017-12-14T11:02:07.878Z,82.5
2017-12-14T11:03:09.309Z,80.5
2017-12-14T11:04:10.742Z,80.2
2017-12-14T11:05:12.192Z,80.0
2017-12-14T11:06:13.693Z,79.6
2017-12-14T11:07:15.317Z,80.2
2017-12-14T11:08:16.952Z,81.6
2017-12-14T11:09:18.433Z,83.7
2017-12-14T11:10:19.846Z,84.9
2017-12-14T11:11:21.300Z,85.8
2017-12-14T11:12:22.897Z,86.8
2017-12-14T11:13:24.471Z,87.4
2017-12-14T11:14:25.907Z,88.3
2017-12-14T11:15:27.444Z,88.8
2017-12-14T11:16:29.049Z,89.1
2017-12-14T11:17:30.532Z,89.2
2017-12-14T11:18:32.004Z,89.8
2017-12-14T11:19:33.479Z,90.0
2017-12-14T11:20:35.035Z,90.8
2017-12-14T11:21:36.499Z,90.6
2017-12-14T11:22:38.014Z,90.6
2017-12-14T11:23:39.589Z,91.6
2017-12-14T11:24:41.120Z,90.8
2017-12-14T11:25:42.643Z,90.9
2017-12-14T11:26:44.085Z,91.0
2017-12-14T11:27:45.497Z,91.7
2017-12-14T11:28:46.994Z,90.9
2017-12-14T11:29:48.564Z,90.8
2017-12-14T11:30:50.050Z,90.5
2017-12-14T11:31:51.493Z,89.8
2017-12-14T11:32:52.908Z,89.9
2017-12-14T11:33:54.365Z,89.8
2017-12-14T11:34:55.875Z,90.1
2017-12-14T11:35:57.309Z,90.8
2017-12-14T11:36:58.789Z,90.6
2017-12-14T11:38:00.274Z,90.2
2017-12-14T11:39:01.649Z,89.9
2017-12-14T11:40:03.128Z,88.9
2017-12-14T11:41:04.622Z,88.4
2017-12-14T11:42:06.107Z,87.7
2017-12-14T11:43:07.550Z,85.5
2017-12-14T11:44:08.953Z,85.7
2017-12-14T11:45:10.378Z,86.4
2017-12-14T11:46:11.815Z,87.1
2017-12-14T11:47:13.359Z,87.0
2017-12-14T11:48:14.786Z,88.1
2017-12-14T11:49:16.187Z,86.9
2017-12-14T11:50:17.596Z,86.9
2017-12-14T11:51:18.990Z,86.3
2017-12-14T11:52:20.446Z,86.4
2017-12-14T11:53:21.918Z,85.6
2017-12-14T11:54:23.485Z,83.6
2017-12-14T11:55:24.881Z,83.5
2017-12-14T11:56:26.299Z,83.1
2017-12-14T11:57:27.735Z,83.6
2017-12-14T11:58:29.223Z,82.3
2017-12-14T11:59:30.663Z,82.2
2017-12-14T12:00:32.066Z,82.7
2017-12-14T12:01:33.497Z,83.2
2017-12-14T12:02:34.990Z,83.5
2017-12-14T12:03:36.680Z,85.1
2017-12-14T12:04:38.188Z,84.7
2017-12-14T12:05:39.601Z,85.2
2017-12-14T12:06:41.034Z,85.6
2017-12-14T12:07:42.459Z,85.6
2017-12-14T12:08:43.975Z,85.5
2017-12-14T12:09:45.406Z,86.7
2017-12-14T12:10:46.827Z,86.2
2017-12-14T12:11:48.320Z,86.3
2017-12-14T12:12:49.791Z,86.3
2017-12-14T12:13:51.334Z,86.8
2017-12-14T12:14:52.897Z,86.6
2017-12-14T12:15:54.542Z,86.6
2017-12-14T12:16:55.951Z,87.4
2017-12-14T12:17:57.482Z,86.7
2017-12-14T12:18:58.936Z,85.5
2017-12-14T12:20:00.429Z,85.5
2017-12-14T12:21:01.971Z,86.3
2017-12-14T12:22:03.418Z,85.6
2017-12-14T12:23:04.811Z,85.3
2017-12-14T12:24:06.427Z,85.0
2017-12-14T12:25:07.832Z,84.1
2017-12-14T12:26:09.346Z,83.1
2017-12-14T12:27:10.835Z,84.1
2017-12-14T12:28:12.262Z,84.2
2017-12-14T12:29:13.766Z,83.9
2017-12-14T12:30:15.192Z,84.7
2017-12-14T12:31:16.615Z,85.2
2017-12-14T12:32:18.197Z,84.6
2017-12-14T12:33:19.621Z,84.7
2017-12-14T12:34:21.055Z,85.2
2017-12-14T12:35:22.485Z,86.3
2017-12-14T12:36:24.064Z,86.2
2017-12-14T12:37:25.520Z,86.2
2017-12-14T12:38:27.077Z,86.3
2017-12-14T12:39:28.605Z,86.1
2017-12-14T12:40:30.034Z,86.3
2017-12-14T12:41:31.494Z,86.7
2017-12-14T12:42:32.990Z,86.5
2017-12-14T12:43:34.477Z,86.6
2017-12-14T12:44:35.900Z,86.4
2017-12-14T12:45:37.382Z,86.2
2017-12-14T12:46:38.938Z,87.2
2017-12-14T12:47:40.406Z,86.7
2017-12-14T12:48:41.837Z,86.3
2017-12-14T12:49:43.284Z,86.8
2017-12-14T12:50:44.830Z,86.3
2017-12-14T12:51:46.206Z,86.4
2017-12-14T12:52:47.660Z,87.3
2017-12-14T12:53:49.098Z,87.2
2017-12-14T12:54:50.531Z,87.9
2017-12-14T12:55:51.959Z,88.0
2017-12-14T12:56:53.520Z,88.7
2017-12-14T12:57:54.946Z,88.0
2017-12-14T12:58:56.337Z,88.2
2017-12-14T12:59:57.741Z,88.4
2017-12-14T13:00:59.186Z,87.9
2017-12-14T13:02:00.583Z,88.6
2017-12-14T13:03:02.035Z,88.2
2017-12-14T13:04:03.687Z,88.0
2017-12-14T13:05:05.136Z,88.5
2017-12-14T13:06:06.592Z,88.2
2017-12-14T13:07:08.009Z,88.5
2017-12-14T13:08:09.469Z,88.1
2017-12-14T13:09:10.913Z,88.2
2017-12-14T13:10:12.381Z,88.4
2017-12-14T13:11:13.898Z,88.3
2017-12-14T13:12:15.407Z,88.2
2017-12-14T13:13:16.833Z,88.5
2017-12-14T13:14:18.267Z,88.0
2017-12-14T13:15:19.703Z,88.4
2017-12-14T13:16:21.199Z,88.7
2017-12-14T13:17:22.670Z,88.2
2017-12-14T13:18:24.140Z,87.2
2017-12-14T13:19:25.565Z,87.6
2017-12-14T13:20:27.123Z,86.4
2017-12-14T13:21:28.627Z,85.7
2017-12-14T13:22:30.031Z,85.2
2017-12-14T13:23:31.445Z,84.8
2017-12-14T13:24:32.922Z,84.7
2017-12-14T13:25:34.384Z,84.9
2017-12-14T13:26:35.799Z,84.7
2017-12-14T13:27:37.220Z,85.3
2017-12-14T13:28:38.702Z,85.5
2017-12-14T13:29:40.150Z,86.3
2017-12-14T13:30:41.544Z,85.9
2017-12-14T13:31:42.961Z,85.5